sensor_id;sensor_type;location;lat;lon;timestamp;P1;durP1;ratioP1;P2;durP2;ratioP2
14992;SDS011;7592;51.088;13.732;2023-05-10T00:04:04;2.03;;;1.63;;
14992;SDS011;7592;51.088;13.732;2023-05-10T00:08:56;2.77;;;1.80;;
14992;SDS011;7592;51.088;13.732;2023-05-10T00:13:48;3.70;;;1.90;;
14992;SDS011;7592;51.088;13.732;2023-05-10T00:18:40;1.70;;;1.60;;
14992;SDS011;7592;51.088;13.732;2023-05-10T00:23:32;3.37;;;1.70;;
14992;SDS011;7592;51.088;13.732;2023-05-10T00:28:25;3.97;;;1.80;;
14992;SDS011;7592;51.088;13.732;2023-05-10T00:33:20;2.13;;;1.50;;
14992;SDS011;7592;51.088;13.732;2023-05-10T00:38:12;4.97;;;1.97;;
14992;SDS011;7592;51.088;13.732;2023-05-10T00:43:05;2.40;;;1.60;;
14992;SDS011;7592;51.088;13.732;2023-05-10T00:47:58;1.70;;;1.60;;
14992;SDS011;7592;51.088;13.732;2023-05-10T00:52:52;2.20;;;2.03;;
14992;SDS011;7592;51.088;13.732;2023-05-10T00:57:44;4.93;;;2.00;;
14992;SDS011;7592;51.088;13.732;2023-05-10T01:02:37;3.23;;;1.50;;
14992;SDS011;7592;51.088;13.732;2023-05-10T01:07:38;2.63;;;1.30;;
14992;SDS011;7592;51.088;13.732;2023-05-10T01:12:32;1.53;;;1.30;;
14992;SDS011;7592;51.088;13.732;2023-05-10T01:17:25;2.37;;;1.47;;
14992;SDS011;7592;51.088;13.732;2023-05-10T01:42:56;1.67;;;1.57;;
14992;SDS011;7592;51.088;13.732;2023-05-10T01:47:58;2.40;;;1.57;;
14992;SDS011;7592;51.088;13.732;2023-05-10T01:52:59;3.60;;;1.70;;
14992;SDS011;7592;51.088;13.732;2023-05-10T01:58:09;1.40;;;1.30;;
14992;SDS011;7592;51.088;13.732;2023-05-10T02:03:17;2.17;;;1.87;;
14992;SDS011;7592;51.088;13.732;2023-05-10T02:08:13;1.67;;;1.53;;
14992;SDS011;7592;51.088;13.732;2023-05-10T02:13:08;1.47;;;1.37;;
14992;SDS011;7592;51.088;13.732;2023-05-10T02:18:03;1.57;;;1.47;;
14992;SDS011;7592;51.088;13.732;2023-05-10T02:22:59;2.97;;;1.57;;
14992;SDS011;7592;51.088;13.732;2023-05-10T02:27:54;1.40;;;1.30;;
14992;SDS011;7592;51.088;13.732;2023-05-10T02:32:48;1.60;;;1.50;;
14992;SDS011;7592;51.088;13.732;2023-05-10T02:37:42;2.37;;;1.80;;
14992;SDS011;7592;51.088;13.732;2023-05-10T02:42:35;1.30;;;1.20;;
14992;SDS011;7592;51.088;13.732;2023-05-10T02:47:29;4.43;;;1.40;;
14992;SDS011;7592;51.088;13.732;2023-05-10T02:52:23;3.80;;;1.70;;
14992;SDS011;7592;51.088;13.732;2023-05-10T02:57:18;1.43;;;1.30;;
14992;SDS011;7592;51.088;13.732;2023-05-10T03:02:25;3.53;;;1.63;;
14992;SDS011;7592;51.088;13.732;2023-05-10T03:07:18;3.77;;;1.67;;
14992;SDS011;7592;51.088;13.732;2023-05-10T03:12:15;3.43;;;1.73;;
14992;SDS011;7592;51.088;13.732;2023-05-10T03:17:36;3.50;;;1.80;;
14992;SDS011;7592;51.088;13.732;2023-05-10T03:22:55;1.87;;;1.60;;
14992;SDS011;7592;51.088;13.732;2023-05-10T03:27:52;1.50;;;1.40;;
14992;SDS011;7592;51.088;13.732;2023-05-10T03:32:46;2.47;;;1.30;;
14992;SDS011;7592;51.088;13.732;2023-05-10T03:37:41;3.37;;;1.67;;
14992;SDS011;7592;51.088;13.732;2023-05-10T03:42:33;4.03;;;1.70;;
14992;SDS011;7592;51.088;13.732;2023-05-10T03:47:26;1.73;;;1.63;;
14992;SDS011;7592;51.088;13.732;2023-05-10T03:52:18;4.50;;;1.80;;
14992;SDS011;7592;51.088;13.732;2023-05-10T03:57:10;2.13;;;1.57;;
14992;SDS011;7592;51.088;13.732;2023-05-10T04:02:03;1.43;;;1.33;;
14992;SDS011;7592;51.088;13.732;2023-05-10T04:06:55;2.43;;;1.63;;
14992;SDS011;7592;51.088;13.732;2023-05-10T04:11:47;1.27;;;1.00;;
14992;SDS011;7592;51.088;13.732;2023-05-10T04:16:39;2.57;;;1.30;;
14992;SDS011;7592;51.088;13.732;2023-05-10T04:21:31;1.40;;;1.30;;
14992;SDS011;7592;51.088;13.732;2023-05-10T04:26:23;1.67;;;1.30;;
14992;SDS011;7592;51.088;13.732;2023-05-10T04:31:16;2.50;;;1.20;;
14992;SDS011;7592;51.088;13.732;2023-05-10T04:36:08;1.33;;;1.23;;
14992;SDS011;7592;51.088;13.732;2023-05-10T04:41:07;1.40;;;1.30;;
14992;SDS011;7592;51.088;13.732;2023-05-10T04:46:00;1.00;;;1.00;;
14992;SDS011;7592;51.088;13.732;2023-05-10T04:50:52;2.10;;;1.47;;
14992;SDS011;7592;51.088;13.732;2023-05-10T04:55:44;1.93;;;1.83;;
14992;SDS011;7592;51.088;13.732;2023-05-10T05:00:37;7.50;;;1.73;;
14992;SDS011;7592;51.088;13.732;2023-05-10T05:05:29;5.70;;;1.30;;
14992;SDS011;7592;51.088;13.732;2023-05-10T05:10:22;1.33;;;1.20;;
14992;SDS011;7592;51.088;13.732;2023-05-10T05:15:14;6.47;;;1.50;;
14992;SDS011;7592;51.088;13.732;2023-05-10T05:20:07;2.07;;;1.10;;
14992;SDS011;7592;51.088;13.732;2023-05-10T05:25:00;1.60;;;1.23;;
14992;SDS011;7592;51.088;13.732;2023-05-10T05:29:55;1.37;;;1.27;;
14992;SDS011;7592;51.088;13.732;2023-05-10T05:34:48;1.70;;;1.30;;
14992;SDS011;7592;51.088;13.732;2023-05-10T05:39:40;1.77;;;1.67;;
14992;SDS011;7592;51.088;13.732;2023-05-10T05:44:32;4.80;;;1.80;;
14992;SDS011;7592;51.088;13.732;2023-05-10T05:49:24;7.53;;;1.63;;
14992;SDS011;7592;51.088;13.732;2023-05-10T05:54:16;2.17;;;1.50;;
14992;SDS011;7592;51.088;13.732;2023-05-10T05:59:08;1.97;;;1.60;;
14992;SDS011;7592;51.088;13.732;2023-05-10T06:04:02;3.10;;;1.30;;
14992;SDS011;7592;51.088;13.732;2023-05-10T06:08:54;3.83;;;1.47;;
14992;SDS011;7592;51.088;13.732;2023-05-10T06:13:47;2.60;;;1.40;;
14992;SDS011;7592;51.088;13.732;2023-05-10T06:18:39;3.87;;;1.23;;
14992;SDS011;7592;51.088;13.732;2023-05-10T06:23:31;2.90;;;1.60;;
14992;SDS011;7592;51.088;13.732;2023-05-10T06:28:23;1.50;;;1.40;;
14992;SDS011;7592;51.088;13.732;2023-05-10T06:33:15;1.93;;;1.63;;
14992;SDS011;7592;51.088;13.732;2023-05-10T06:38:08;2.80;;;1.50;;
14992;SDS011;7592;51.088;13.732;2023-05-10T06:43:00;3.63;;;1.40;;
14992;SDS011;7592;51.088;13.732;2023-05-10T06:47:52;4.20;;;1.70;;
14992;SDS011;7592;51.088;13.732;2023-05-10T06:52:44;1.93;;;1.67;;
14992;SDS011;7592;51.088;13.732;2023-05-10T06:57:36;2.10;;;1.40;;
14992;SDS011;7592;51.088;13.732;2023-05-10T07:02:28;7.03;;;1.87;;
14992;SDS011;7592;51.088;13.732;2023-05-10T07:07:20;4.23;;;1.80;;
14992;SDS011;7592;51.088;13.732;2023-05-10T07:12:12;2.00;;;1.90;;
14992;SDS011;7592;51.088;13.732;2023-05-10T07:17:06;5.13;;;2.17;;
14992;SDS011;7592;51.088;13.732;2023-05-10T07:21:58;2.57;;;1.60;;
14992;SDS011;7592;51.088;13.732;2023-05-10T07:26:51;5.27;;;2.10;;
14992;SDS011;7592;51.088;13.732;2023-05-10T07:31:45;2.53;;;1.40;;
14992;SDS011;7592;51.088;13.732;2023-05-10T07:36:37;8.90;;;2.13;;
14992;SDS011;7592;51.088;13.732;2023-05-10T07:41:30;2.80;;;1.80;;
14992;SDS011;7592;51.088;13.732;2023-05-10T07:46:22;4.30;;;1.90;;
14992;SDS011;7592;51.088;13.732;2023-05-10T07:51:14;2.67;;;1.67;;
14992;SDS011;7592;51.088;13.732;2023-05-10T07:56:22;5.13;;;1.60;;
14992;SDS011;7592;51.088;13.732;2023-05-10T08:01:21;4.03;;;2.03;;
14992;SDS011;7592;51.088;13.732;2023-05-10T08:06:14;5.90;;;3.03;;
14992;SDS011;7592;51.088;13.732;2023-05-10T08:11:08;4.03;;;2.13;;
14992;SDS011;7592;51.088;13.732;2023-05-10T08:16:00;2.35;;;1.70;;
14992;SDS011;7592;51.088;13.732;2023-05-10T08:20:52;5.07;;;1.90;;
14992;SDS011;7592;51.088;13.732;2023-05-10T08:25:44;4.40;;;2.10;;
14992;SDS011;7592;51.088;13.732;2023-05-10T08:30:37;1.80;;;1.70;;
14992;SDS011;7592;51.088;13.732;2023-05-10T08:35:29;2.20;;;2.00;;
14992;SDS011;7592;51.088;13.732;2023-05-10T08:40:21;1.80;;;1.70;;
14992;SDS011;7592;51.088;13.732;2023-05-10T08:45:15;5.85;;;1.92;;
14992;SDS011;7592;51.088;13.732;2023-05-10T08:50:10;2.25;;;2.10;;
14992;SDS011;7592;51.088;13.732;2023-05-10T08:55:03;4.00;;;3.25;;
14992;SDS011;7592;51.088;13.732;2023-05-10T08:59:56;6.00;;;1.95;;
14992;SDS011;7592;51.088;13.732;2023-05-10T09:04:48;2.60;;;2.03;;
14992;SDS011;7592;51.088;13.732;2023-05-10T09:09:40;3.90;;;2.13;;
14992;SDS011;7592;51.088;13.732;2023-05-10T09:14:33;2.13;;;2.03;;
14992;SDS011;7592;51.088;13.732;2023-05-10T09:19:27;2.75;;;2.17;;
14992;SDS011;7592;51.088;13.732;2023-05-10T09:24:19;3.17;;;2.10;;
14992;SDS011;7592;51.088;13.732;2023-05-10T09:29:16;2.28;;;2.08;;
14992;SDS011;7592;51.088;13.732;2023-05-10T09:34:09;2.10;;;1.90;;
14992;SDS011;7592;51.088;13.732;2023-05-10T09:39:01;2.35;;;2.10;;
14992;SDS011;7592;51.088;13.732;2023-05-10T09:43:56;3.78;;;2.15;;
14992;SDS011;7592;51.088;13.732;2023-05-10T09:48:48;2.15;;;1.90;;
14992;SDS011;7592;51.088;13.732;2023-05-10T09:53:43;2.22;;;1.90;;
14992;SDS011;7592;51.088;13.732;2023-05-10T09:58:38;2.90;;;2.05;;
14992;SDS011;7592;51.088;13.732;2023-05-10T10:03:31;2.67;;;2.08;;
14992;SDS011;7592;51.088;13.732;2023-05-10T10:08:23;3.25;;;2.70;;
14992;SDS011;7592;51.088;13.732;2023-05-10T10:13:15;2.03;;;1.80;;
14992;SDS011;7592;51.088;13.732;2023-05-10T10:18:12;3.15;;;2.30;;
14992;SDS011;7592;51.088;13.732;2023-05-10T10:23:07;3.05;;;2.75;;
14992;SDS011;7592;51.088;13.732;2023-05-10T10:28:07;5.00;;;2.25;;
14992;SDS011;7592;51.088;13.732;2023-05-10T10:43:38;4.78;;;2.70;;
14992;SDS011;7592;51.088;13.732;2023-05-10T10:48:30;7.85;;;2.13;;
14992;SDS011;7592;51.088;13.732;2023-05-10T10:53:23;3.88;;;3.05;;
14992;SDS011;7592;51.088;13.732;2023-05-10T10:58:29;4.68;;;2.33;;
14992;SDS011;7592;51.088;13.732;2023-05-10T11:03:25;2.33;;;2.22;;
14992;SDS011;7592;51.088;13.732;2023-05-10T11:08:32;3.23;;;2.90;;
14992;SDS011;7592;51.088;13.732;2023-05-10T11:18:29;2.50;;;2.30;;
14992;SDS011;7592;51.088;13.732;2023-05-10T11:23:22;8.03;;;2.80;;
14992;SDS011;7592;51.088;13.732;2023-05-10T11:28:16;3.27;;;2.70;;
14992;SDS011;7592;51.088;13.732;2023-05-10T11:33:09;2.80;;;2.60;;
14992;SDS011;7592;51.088;13.732;2023-05-10T11:38:08;3.90;;;2.30;;
14992;SDS011;7592;51.088;13.732;2023-05-10T11:43:01;4.90;;;2.73;;
14992;SDS011;7592;51.088;13.732;2023-05-10T11:47:57;3.17;;;2.77;;
14992;SDS011;7592;51.088;13.732;2023-05-10T11:52:51;3.00;;;2.83;;
14992;SDS011;7592;51.088;13.732;2023-05-10T11:57:47;4.20;;;2.27;;
14992;SDS011;7592;51.088;13.732;2023-05-10T12:02:42;3.00;;;2.60;;
14992;SDS011;7592;51.088;13.732;2023-05-10T12:07:35;3.23;;;2.63;;
14992;SDS011;7592;51.088;13.732;2023-05-10T12:12:27;2.80;;;2.50;;
14992;SDS011;7592;51.088;13.732;2023-05-10T12:17:29;3.57;;;2.97;;
14992;SDS011;7592;51.088;13.732;2023-05-10T12:22:21;4.33;;;3.97;;
14992;SDS011;7592;51.088;13.732;2023-05-10T12:27:13;2.80;;;2.60;;
14992;SDS011;7592;51.088;13.732;2023-05-10T12:32:06;3.40;;;3.17;;
14992;SDS011;7592;51.088;13.732;2023-05-10T12:36:58;5.07;;;2.73;;
14992;SDS011;7592;51.088;13.732;2023-05-10T12:41:50;3.93;;;2.73;;
14992;SDS011;7592;51.088;13.732;2023-05-10T12:46:43;2.63;;;2.43;;
14992;SDS011;7592;51.088;13.732;2023-05-10T12:51:35;2.83;;;2.50;;
14992;SDS011;7592;51.088;13.732;2023-05-10T12:56:27;2.83;;;2.30;;
14992;SDS011;7592;51.088;13.732;2023-05-10T13:01:19;4.33;;;3.03;;
14992;SDS011;7592;51.088;13.732;2023-05-10T13:06:12;3.77;;;2.57;;
14992;SDS011;7592;51.088;13.732;2023-05-10T13:11:05;4.37;;;2.80;;
14992;SDS011;7592;51.088;13.732;2023-05-10T13:15:57;4.17;;;2.40;;
14992;SDS011;7592;51.088;13.732;2023-05-10T13:20:49;5.47;;;2.30;;
14992;SDS011;7592;51.088;13.732;2023-05-10T13:25:41;2.20;;;2.10;;
14992;SDS011;7592;51.088;13.732;2023-05-10T13:30:33;2.80;;;2.53;;
14992;SDS011;7592;51.088;13.732;2023-05-10T13:35:26;6.93;;;2.70;;
14992;SDS011;7592;51.088;13.732;2023-05-10T13:40:18;2.80;;;2.43;;
14992;SDS011;7592;51.088;13.732;2023-05-10T13:45:10;3.00;;;2.30;;
14992;SDS011;7592;51.088;13.732;2023-05-10T13:50:04;2.57;;;2.30;;
14992;SDS011;7592;51.088;13.732;2023-05-10T13:54:57;3.23;;;2.93;;
14992;SDS011;7592;51.088;13.732;2023-05-10T13:59:49;3.07;;;2.77;;
14992;SDS011;7592;51.088;13.732;2023-05-10T14:04:42;4.00;;;3.07;;
14992;SDS011;7592;51.088;13.732;2023-05-10T14:09:34;3.70;;;2.63;;
14992;SDS011;7592;51.088;13.732;2023-05-10T14:14:26;3.27;;;2.60;;
14992;SDS011;7592;51.088;13.732;2023-05-10T14:19:20;6.70;;;2.60;;
14992;SDS011;7592;51.088;13.732;2023-05-10T14:24:12;4.37;;;2.70;;
14992;SDS011;7592;51.088;13.732;2023-05-10T14:29:04;4.10;;;2.40;;
14992;SDS011;7592;51.088;13.732;2023-05-10T14:33:56;4.37;;;2.73;;
14992;SDS011;7592;51.088;13.732;2023-05-10T14:38:49;2.53;;;2.20;;
14992;SDS011;7592;51.088;13.732;2023-05-10T14:43:41;4.93;;;2.50;;
14992;SDS011;7592;51.088;13.732;2023-05-10T14:48:33;8.17;;;2.70;;
14992;SDS011;7592;51.088;13.732;2023-05-10T14:53:26;4.47;;;2.10;;
14992;SDS011;7592;51.088;13.732;2023-05-10T14:58:18;4.90;;;2.53;;
14992;SDS011;7592;51.088;13.732;2023-05-10T15:03:10;5.50;;;2.53;;
14992;SDS011;7592;51.088;13.732;2023-05-10T15:08:04;4.37;;;2.83;;
14992;SDS011;7592;51.088;13.732;2023-05-10T15:12:57;2.50;;;2.40;;
14992;SDS011;7592;51.088;13.732;2023-05-10T15:17:49;2.60;;;2.33;;
14992;SDS011;7592;51.088;13.732;2023-05-10T15:22:43;2.40;;;2.20;;
14992;SDS011;7592;51.088;13.732;2023-05-10T15:27:36;1.90;;;1.80;;
14992;SDS011;7592;51.088;13.732;2023-05-10T15:32:28;1.83;;;1.73;;
14992;SDS011;7592;51.088;13.732;2023-05-10T15:37:20;3.27;;;2.57;;
14992;SDS011;7592;51.088;13.732;2023-05-10T15:42:14;4.70;;;2.20;;
14992;SDS011;7592;51.088;13.732;2023-05-10T15:47:07;2.20;;;2.00;;
14992;SDS011;7592;51.088;13.732;2023-05-10T15:51:59;2.13;;;1.90;;
14992;SDS011;7592;51.088;13.732;2023-05-10T15:56:51;3.53;;;2.17;;
14992;SDS011;7592;51.088;13.732;2023-05-10T16:01:45;3.97;;;2.33;;
14992;SDS011;7592;51.088;13.732;2023-05-10T16:06:39;3.77;;;1.80;;
14992;SDS011;7592;51.088;13.732;2023-05-10T16:11:31;4.03;;;2.40;;
14992;SDS011;7592;51.088;13.732;2023-05-10T16:16:23;1.90;;;1.80;;
14992;SDS011;7592;51.088;13.732;2023-05-10T16:21:15;2.30;;;2.00;;
14992;SDS011;7592;51.088;13.732;2023-05-10T16:26:07;4.97;;;3.10;;
14992;SDS011;7592;51.088;13.732;2023-05-10T16:30:59;2.80;;;2.43;;
14992;SDS011;7592;51.088;13.732;2023-05-10T16:35:51;2.87;;;2.27;;
14992;SDS011;7592;51.088;13.732;2023-05-10T16:40:44;2.60;;;2.20;;
14992;SDS011;7592;51.088;13.732;2023-05-10T16:45:36;2.60;;;2.33;;
14992;SDS011;7592;51.088;13.732;2023-05-10T16:50:28;2.73;;;2.60;;
14992;SDS011;7592;51.088;13.732;2023-05-10T16:55:20;4.13;;;2.90;;
14992;SDS011;7592;51.088;13.732;2023-05-10T17:00:16;2.50;;;2.40;;
14992;SDS011;7592;51.088;13.732;2023-05-10T17:05:11;2.30;;;2.20;;
14992;SDS011;7592;51.088;13.732;2023-05-10T17:10:03;2.40;;;2.20;;
14992;SDS011;7592;51.088;13.732;2023-05-10T17:14:58;3.03;;;2.70;;
14992;SDS011;7592;51.088;13.732;2023-05-10T17:19:50;3.20;;;2.50;;
14992;SDS011;7592;51.088;13.732;2023-05-10T17:24:43;2.63;;;2.40;;
14992;SDS011;7592;51.088;13.732;2023-05-10T17:29:36;2.63;;;2.53;;
14992;SDS011;7592;51.088;13.732;2023-05-10T17:34:28;2.03;;;1.93;;
14992;SDS011;7592;51.088;13.732;2023-05-10T17:39:21;1.93;;;1.83;;
14992;SDS011;7592;51.088;13.732;2023-05-10T17:44:13;2.27;;;2.00;;
14992;SDS011;7592;51.088;13.732;2023-05-10T17:49:05;2.30;;;2.10;;
14992;SDS011;7592;51.088;13.732;2023-05-10T17:53:57;2.37;;;2.13;;
14992;SDS011;7592;51.088;13.732;2023-05-10T17:58:50;2.40;;;1.87;;
14992;SDS011;7592;51.088;13.732;2023-05-10T18:03:43;1.57;;;1.47;;
14992;SDS011;7592;51.088;13.732;2023-05-10T18:08:37;1.43;;;1.33;;
14992;SDS011;7592;51.088;13.732;2023-05-10T18:13:30;1.47;;;1.37;;
14992;SDS011;7592;51.088;13.732;2023-05-10T18:18:22;1.53;;;1.43;;
14992;SDS011;7592;51.088;13.732;2023-05-10T18:23:14;3.00;;;1.00;;
14992;SDS011;7592;51.088;13.732;2023-05-10T18:28:07;1.33;;;1.23;;
14992;SDS011;7592;51.088;13.732;2023-05-10T18:32:59;1.30;;;1.20;;
14992;SDS011;7592;51.088;13.732;2023-05-10T18:37:51;1.30;;;1.20;;
14992;SDS011;7592;51.088;13.732;2023-05-10T18:42:43;2.23;;;1.30;;
14992;SDS011;7592;51.088;13.732;2023-05-10T18:47:37;2.83;;;1.57;;
14992;SDS011;7592;51.088;13.732;2023-05-10T18:52:29;2.03;;;1.73;;
14992;SDS011;7592;51.088;13.732;2023-05-10T18:57:21;3.50;;;1.60;;
14992;SDS011;7592;51.088;13.732;2023-05-10T19:02:14;1.47;;;1.43;;
14992;SDS011;7592;51.088;13.732;2023-05-10T19:07:06;2.53;;;2.30;;
14992;SDS011;7592;51.088;13.732;2023-05-10T19:11:59;3.07;;;2.87;;
14992;SDS011;7592;51.088;13.732;2023-05-10T19:16:51;2.43;;;2.20;;
14992;SDS011;7592;51.088;13.732;2023-05-10T19:21:44;5.53;;;2.40;;
14992;SDS011;7592;51.088;13.732;2023-05-10T19:26:39;2.00;;;1.90;;
14992;SDS011;7592;51.088;13.732;2023-05-10T19:31:32;2.23;;;1.80;;
14992;SDS011;7592;51.088;13.732;2023-05-10T19:36:25;1.67;;;1.57;;
14992;SDS011;7592;51.088;13.732;2023-05-10T19:41:17;4.17;;;3.03;;
14992;SDS011;7592;51.088;13.732;2023-05-10T19:46:09;2.50;;;2.30;;
14992;SDS011;7592;51.088;13.732;2023-05-10T19:51:02;3.17;;;2.53;;
14992;SDS011;7592;51.088;13.732;2023-05-10T19:56:05;3.07;;;2.87;;
14992;SDS011;7592;51.088;13.732;2023-05-10T20:00:58;2.80;;;2.60;;
14992;SDS011;7592;51.088;13.732;2023-05-10T20:05:50;2.20;;;2.07;;
14992;SDS011;7592;51.088;13.732;2023-05-10T20:10:42;2.70;;;2.50;;
14992;SDS011;7592;51.088;13.732;2023-05-10T20:15:34;2.57;;;2.37;;
14992;SDS011;7592;51.088;13.732;2023-05-10T20:20:27;2.47;;;2.20;;
14992;SDS011;7592;51.088;13.732;2023-05-10T20:25:19;2.27;;;2.17;;
14992;SDS011;7592;51.088;13.732;2023-05-10T20:30:13;1.83;;;1.73;;
14992;SDS011;7592;51.088;13.732;2023-05-10T20:35:06;3.50;;;2.37;;
14992;SDS011;7592;51.088;13.732;2023-05-10T20:39:59;2.13;;;1.87;;
14992;SDS011;7592;51.088;13.732;2023-05-10T20:44:51;4.97;;;2.50;;
14992;SDS011;7592;51.088;13.732;2023-05-10T20:49:43;2.10;;;2.00;;
14992;SDS011;7592;51.088;13.732;2023-05-10T20:54:36;1.87;;;1.77;;
14992;SDS011;7592;51.088;13.732;2023-05-10T20:59:29;4.20;;;1.90;;
14992;SDS011;7592;51.088;13.732;2023-05-10T21:04:21;4.60;;;2.20;;
14992;SDS011;7592;51.088;13.732;2023-05-10T21:09:13;2.73;;;2.40;;
14992;SDS011;7592;51.088;13.732;2023-05-10T21:14:06;3.53;;;2.13;;
14992;SDS011;7592;51.088;13.732;2023-05-10T21:18:59;2.07;;;1.97;;
14992;SDS011;7592;51.088;13.732;2023-05-10T21:23:52;2.20;;;2.10;;
14992;SDS011;7592;51.088;13.732;2023-05-10T21:28:44;2.83;;;2.50;;
14992;SDS011;7592;51.088;13.732;2023-05-10T21:33:36;4.43;;;2.10;;
14992;SDS011;7592;51.088;13.732;2023-05-10T21:38:29;2.93;;;2.73;;
14992;SDS011;7592;51.088;13.732;2023-05-10T21:43:22;2.33;;;2.13;;
14992;SDS011;7592;51.088;13.732;2023-05-10T21:48:14;2.93;;;2.70;;
14992;SDS011;7592;51.088;13.732;2023-05-10T21:53:06;3.20;;;2.90;;
14992;SDS011;7592;51.088;13.732;2023-05-10T21:57:58;2.63;;;2.43;;
14992;SDS011;7592;51.088;13.732;2023-05-10T22:02:50;2.63;;;2.37;;
14992;SDS011;7592;51.088;13.732;2023-05-10T22:07:44;2.40;;;2.17;;
14992;SDS011;7592;51.088;13.732;2023-05-10T22:12:36;2.70;;;2.50;;
14992;SDS011;7592;51.088;13.732;2023-05-10T22:17:28;3.13;;;2.90;;
14992;SDS011;7592;51.088;13.732;2023-05-10T22:22:20;2.50;;;2.30;;
14992;SDS011;7592;51.088;13.732;2023-05-10T22:27:12;3.03;;;2.83;;
14992;SDS011;7592;51.088;13.732;2023-05-10T22:32:05;2.80;;;2.60;;
14992;SDS011;7592;51.088;13.732;2023-05-10T22:36:58;2.97;;;2.67;;
14992;SDS011;7592;51.088;13.732;2023-05-10T22:41:50;3.97;;;3.00;;
14992;SDS011;7592;51.088;13.732;2023-05-10T22:46:42;3.53;;;3.03;;
14992;SDS011;7592;51.088;13.732;2023-05-10T22:51:35;5.37;;;3.17;;
14992;SDS011;7592;51.088;13.732;2023-05-10T22:56:27;3.77;;;3.47;;
14992;SDS011;7592;51.088;13.732;2023-05-10T23:01:20;3.73;;;3.53;;
14992;SDS011;7592;51.088;13.732;2023-05-10T23:06:12;3.80;;;3.50;;
14992;SDS011;7592;51.088;13.732;2023-05-10T23:11:04;4.10;;;3.80;;
14992;SDS011;7592;51.088;13.732;2023-05-10T23:15:56;3.90;;;3.60;;
14992;SDS011;7592;51.088;13.732;2023-05-10T23:20:48;4.50;;;4.10;;
14992;SDS011;7592;51.088;13.732;2023-05-10T23:25:40;4.60;;;4.13;;
14992;SDS011;7592;51.088;13.732;2023-05-10T23:30:32;7.87;;;4.27;;
14992;SDS011;7592;51.088;13.732;2023-05-10T23:35:25;4.63;;;4.10;;
14992;SDS011;7592;51.088;13.732;2023-05-10T23:40:18;5.20;;;4.70;;
14992;SDS011;7592;51.088;13.732;2023-05-10T23:45:10;4.37;;;4.07;;
14992;SDS011;7592;51.088;13.732;2023-05-10T23:50:05;6.10;;;4.60;;
14992;SDS011;7592;51.088;13.732;2023-05-10T23:54:59;5.07;;;4.63;;
14992;SDS011;7592;51.088;13.732;2023-05-10T23:59:51;4.90;;;4.40;;
